Time,TemperatureF,DewpointF,PressureIn,WindDirection,WindDirectionDegrees,WindSpeedMPH,WindSpeedGustMPH,Humidity,HourlyPrecipIn,Conditions,Clouds,dailyrainin,SoftwareType,DateUTC
2013-01-31 00:01:00,24.7,21.9,29.53,WNW,283,14.0,25.0,89,0.00,,---,0.00,VWS V14.01,2013-01-31 05:01:00,
2013-01-31 00:16:00,24.2,20.6,29.54,West,277,14.0,25.0,86,0.00,,---,0.00,VWS V14.01,2013-01-31 05:16:00,
2013-01-31 00:31:00,23.8,20.5,29.55,West,271,16.0,27.0,87,0.00,,---,0.00,VWS V14.01,2013-01-31 05:31:00,
2013-01-31 00:46:00,23.2,20.2,29.56,West,273,15.0,25.0,88,0.00,,---,0.00,VWS V14.01,2013-01-31 05:46:00,
2013-01-31 01:01:00,22.9,20.1,29.57,West,262,15.0,26.0,89,0.00,,---,0.00,VWS V14.01,2013-01-31 06:01:00,
2013-01-31 01:16:00,22.5,19.8,29.58,WNW,284,18.0,29.0,89,0.00,,---,0.00,VWS V14.01,2013-01-31 06:16:00,
2013-01-31 01:31:00,22.5,19.5,29.58,WNW,284,15.0,20.0,88,0.00,,---,0.00,VWS V14.01,2013-01-31 06:31:00,
2013-01-31 01:46:00,22.0,18.2,29.59,West,277,18.0,25.0,85,0.00,,---,0.00,VWS V14.01,2013-01-31 06:46:00,
2013-01-31 02:01:00,21.8,18.3,29.59,West,281,8.0,23.0,86,0.00,,---,0.00,VWS V14.01,2013-01-31 07:01:00,
2013-01-31 02:16:00,21.6,19.1,29.61,West,272,12.0,22.0,90,0.00,,---,0.00,VWS V14.01,2013-01-31 07:16:00,
2013-01-31 02:31:00,21.2,17.4,29.62,WNW,297,17.0,27.0,85,0.00,,---,0.00,VWS V14.01,2013-01-31 07:31:00,
2013-01-31 02:46:00,21.0,17.5,29.64,West,279,14.0,22.0,86,0.00,,---,0.00,VWS V14.01,2013-01-31 07:46:00,
2013-01-31 03:01:00,21.0,17.2,29.64,West,263,12.0,23.0,85,0.00,,---,0.00,VWS V14.01,2013-01-31 08:01:00,
2013-01-31 03:16:00,20.4,17.7,29.65,West,269,19.0,25.0,89,0.00,,---,0.00,VWS V14.01,2013-01-31 08:16:00,
2013-01-31 03:31:00,20.7,16.6,29.65,WNW,284,12.0,26.0,84,0.00,,---,0.00,VWS V14.01,2013-01-31 08:31:00,
2013-01-31 03:46:00,20.7,16.9,29.65,WNW,298,8.0,25.0,85,0.00,,---,0.00,VWS V14.01,2013-01-31 08:46:00,
2013-01-31 04:01:00,20.2,17.7,29.66,West,273,7.0,17.0,90,0.00,,---,0.00,VWS V14.01,2013-01-31 09:01:00,
2013-01-31 04:16:00,20.6,17.4,29.66,WSW,244,13.0,22.0,87,0.00,,---,0.00,VWS V14.01,2013-01-31 09:16:00,
2013-01-31 04:31:00,20.3,16.0,29.67,West,259,18.0,21.0,83,0.00,,---,0.00,VWS V14.01,2013-01-31 09:31:00,
2013-01-31 04:46:00,20.1,16.0,29.67,SW,229,9.0,23.0,84,0.00,,---,0.00,VWS V14.01,2013-01-31 09:46:00,
2013-01-31 05:01:00,19.6,15.8,29.68,SW,231,12.0,24.0,85,0.00,,---,0.00,VWS V14.01,2013-01-31 10:01:00,
2013-01-31 05:16:00,19.1,16.1,29.68,West,275,14.0,21.0,88,0.00,,---,0.00,VWS V14.01,2013-01-31 10:16:00,
2013-01-31 05:31:00,18.8,16.1,29.69,WSW,257,11.0,19.0,89,0.00,,---,0.00,VWS V14.01,2013-01-31 10:31:00,
2013-01-31 05:46:00,18.6,15.4,29.70,SW,233,14.0,19.0,87,0.00,,---,0.00,VWS V14.01,2013-01-31 10:46:00,
2013-01-31 06:01:00,18.1,15.1,29.70,WSW,244,13.0,20.0,88,0.00,,---,0.00,VWS V14.01,2013-01-31 11:01:00,
2013-01-31 06:16:00,18.1,14.4,29.71,SW,236,11.0,21.0,85,0.00,,---,0.00,VWS V14.01,2013-01-31 11:16:00,
2013-01-31 06:31:00,18.0,14.3,29.71,WNW,291,9.0,21.0,85,0.00,,---,0.00,VWS V14.01,2013-01-31 11:31:00,
2013-01-31 06:46:00,18.0,14.0,29.72,West,267,10.0,20.0,84,0.00,,---,0.00,VWS V14.01,2013-01-31 11:46:00,
2013-01-31 07:01:00,18.0,14.0,29.73,West,267,10.0,10.0,84,0.00,,---,0.00,VWS V14.01,2013-01-31 12:01:00,
2013-01-31 07:16:00,17.3,12.2,29.74,West,265,19.0,23.0,80,0.00,,---,0.00,VWS V14.01,2013-01-31 12:16:00,
2013-01-31 07:31:00,17.3,11.9,29.74,WSW,252,12.0,22.0,79,0.00,,---,0.00,VWS V14.01,2013-01-31 12:31:00,
2013-01-31 07:46:00,17.5,12.1,29.75,West,261,12.0,23.0,79,0.00,,---,0.00,VWS V14.01,2013-01-31 12:46:00,
2013-01-31 08:01:00,17.5,12.4,29.75,West,270,10.0,21.0,80,0.00,,---,0.00,VWS V14.01,2013-01-31 13:01:00,
2013-01-31 08:16:00,17.4,13.1,29.76,SW,236,6.0,19.0,83,0.00,,---,0.00,VWS V14.01,2013-01-31 13:16:00,
2013-01-31 08:31:00,17.0,13.8,29.77,West,265,10.0,17.0,87,0.00,,---,0.00,VWS V14.01,2013-01-31 13:31:00,
2013-01-31 08:46:00,16.7,14.3,29.78,SW,225,9.0,13.0,90,0.00,,---,0.00,VWS V14.01,2013-01-31 13:46:00,
2013-01-31 09:01:00,16.4,14.2,29.78,WSW,250,7.0,13.0,91,0.00,,---,0.00,VWS V14.01,2013-01-31 14:01:00,
2013-01-31 09:16:00,16.6,14.4,29.79,SW,229,8.0,12.0,91,0.00,,---,0.00,VWS V14.01,2013-01-31 14:16:00,
2013-01-31 09:31:00,17.0,14.3,29.80,West,266,9.0,18.0,89,0.00,,---,0.00,VWS V14.01,2013-01-31 14:31:00,
2013-01-31 09:46:00,17.3,14.1,29.81,West,278,10.0,16.0,87,0.00,,---,0.00,VWS V14.01,2013-01-31 14:46:00,
2013-01-31 10:01:00,17.4,13.9,29.82,West,271,12.0,17.0,86,0.00,,---,0.00,VWS V14.01,2013-01-31 15:01:00,
2013-01-31 10:16:00,17.0,14.1,29.82,WSW,257,7.0,14.0,88,0.00,,---,0.00,VWS V14.01,2013-01-31 15:16:00,
2013-01-31 10:31:00,16.3,13.9,29.83,West,261,9.0,14.0,90,0.00,,---,0.00,VWS V14.01,2013-01-31 15:31:00,
2013-01-31 10:46:00,16.9,14.0,29.83,West,264,7.0,15.0,88,0.00,,---,0.00,VWS V14.01,2013-01-31 15:46:00,
2013-01-31 11:01:00,18.1,13.5,29.84,West,272,10.0,18.0,82,0.00,,---,0.00,VWS V14.01,2013-01-31 16:01:00,
2013-01-31 11:16:00,18.0,13.7,29.84,WSW,243,8.0,17.0,83,0.00,,---,0.00,VWS V14.01,2013-01-31 16:16:00,
2013-01-31 11:31:00,17.0,14.3,29.85,West,269,11.0,16.0,89,0.00,,---,0.00,VWS V14.01,2013-01-31 16:31:00,
2013-01-31 11:46:00,17.0,13.8,29.85,West,265,12.0,18.0,87,0.00,,---,0.00,VWS V14.01,2013-01-31 16:46:00,
2013-01-31 12:01:00,16.7,13.2,29.86,WSW,245,8.0,17.0,86,0.00,,---,0.00,VWS V14.01,2013-01-31 17:01:00,
2013-01-31 12:16:00,16.9,13.2,29.86,West,261,9.0,16.0,85,0.00,,---,0.00,VWS V14.01,2013-01-31 17:16:00,
2013-01-31 12:31:00,16.5,13.1,29.86,West,268,9.0,18.0,86,0.00,,---,0.00,VWS V14.01,2013-01-31 17:31:00,
2013-01-31 12:46:00,16.5,13.1,29.86,SW,229,13.0,18.0,86,0.00,,---,0.00,VWS V14.01,2013-01-31 17:46:00,
2013-01-31 13:01:00,16.7,12.2,29.87,West,267,9.0,20.0,82,0.00,,---,0.00,VWS V14.01,2013-01-31 18:01:00,
2013-01-31 13:16:00,17.1,10.3,29.87,West,265,10.0,18.0,74,0.00,,---,0.00,VWS V14.01,2013-01-31 18:16:00,
2013-01-31 13:31:00,16.2,13.0,29.87,WSW,239,13.0,22.0,87,0.00,,---,0.00,VWS V14.01,2013-01-31 18:31:00,
2013-01-31 13:46:00,16.2,13.3,29.88,WSW,256,16.0,22.0,88,0.00,,---,0.00,VWS V14.01,2013-01-31 18:46:00,
2013-01-31 14:01:00,16.0,12.0,29.89,West,262,20.0,22.0,84,0.00,,---,0.00,VWS V14.01,2013-01-31 19:01:00,
2013-01-31 14:16:00,16.2,10.3,29.89,West,259,14.0,20.0,77,0.00,,---,0.00,VWS V14.01,2013-01-31 19:16:00,
2013-01-31 14:31:00,16.2,10.8,29.90,West,278,16.0,19.0,79,0.00,,---,0.00,VWS V14.01,2013-01-31 19:31:00,
2013-01-31 14:46:00,15.7,11.7,29.90,West,275,17.0,22.0,84,0.00,,---,0.00,VWS V14.01,2013-01-31 19:46:00,
2013-01-31 15:01:00,15.4,10.9,29.90,West,270,9.0,23.0,82,0.00,,---,0.00,VWS V14.01,2013-01-31 20:01:00,
2013-01-31 15:16:00,15.2,11.2,29.90,West,275,15.0,20.0,84,0.00,,---,0.00,VWS V14.01,2013-01-31 20:16:00,
2013-01-31 15:31:00,14.6,11.7,29.91,West,273,8.0,19.0,88,0.00,,---,0.00,VWS V14.01,2013-01-31 20:31:00,
2013-01-31 15:46:00,14.7,11.8,29.91,WSW,255,9.0,18.0,88,0.00,,---,0.00,VWS V14.01,2013-01-31 20:46:00,
2013-01-31 16:01:00,14.7,11.8,29.91,WSW,244,12.0,21.0,88,0.00,,---,0.00,VWS V14.01,2013-01-31 21:01:00,
2013-01-31 16:16:00,14.5,11.1,29.92,WSW,250,10.0,21.0,86,0.00,,---,0.00,VWS V14.01,2013-01-31 21:16:00,
2013-01-31 16:31:00,14.2,11.1,29.92,WSW,251,6.0,19.0,87,0.00,,---,0.00,VWS V14.01,2013-01-31 21:31:00,
2013-01-31 16:46:00,14.0,11.1,29.92,West,273,6.0,16.0,88,0.00,,---,0.00,VWS V14.01,2013-01-31 21:46:00,
2013-01-31 17:01:00,14.0,11.6,29.93,West,267,6.0,17.0,90,0.00,,---,0.00,VWS V14.01,2013-01-31 22:01:00,
2013-01-31 17:16:00,14.1,11.2,29.93,West,268,10.0,14.0,88,0.00,,---,0.00,VWS V14.01,2013-01-31 22:16:00,
2013-01-31 17:31:00,14.0,11.1,29.94,West,271,8.0,14.0,88,0.00,,---,0.00,VWS V14.01,2013-01-31 22:31:00,
2013-01-31 17:46:00,13.7,11.1,29.94,WNW,285,8.0,14.0,89,0.00,,---,0.00,VWS V14.01,2013-01-31 22:46:00,
2013-01-31 18:01:00,13.5,11.1,29.95,West,263,7.0,14.0,90,0.00,,---,0.00,VWS V14.01,2013-01-31 23:01:00,
2013-01-31 18:16:00,13.5,11.1,29.96,West,271,9.0,14.0,90,0.00,,---,0.00,VWS V14.01,2013-01-31 23:16:00,
2013-01-31 18:31:00,13.4,11.0,29.97,WSW,258,6.0,15.0,90,0.00,,---,0.00,VWS V14.01,2013-01-31 23:31:00,
2013-01-31 18:46:00,13.5,11.1,29.97,West,267,6.0,14.0,90,0.00,,---,0.00,VWS V14.01,2013-01-31 23:46:00,
2013-01-31 19:01:00,13.5,10.9,29.98,WSW,256,9.0,17.0,89,0.00,,---,0.00,VWS V14.01,2013-02-01 00:01:00,
2013-01-31 19:16:00,13.0,10.6,29.99,West,259,6.0,16.0,90,0.00,,---,0.00,VWS V14.01,2013-02-01 00:16:00,
2013-01-31 19:31:00,12.7,10.6,30.00,West,259,8.0,14.0,91,0.00,,---,0.00,VWS V14.01,2013-02-01 00:31:00,
2013-01-31 19:46:00,12.3,10.2,30.00,WSW,239,5.0,17.0,91,0.00,,---,0.00,VWS V14.01,2013-02-01 00:46:00,
2013-01-31 20:01:00,12.2,10.1,30.01,SW,236,8.0,15.0,91,0.00,,---,0.00,VWS V14.01,2013-02-01 01:01:00,
2013-01-31 20:16:00,12.2,10.1,30.01,West,277,7.0,17.0,91,0.00,,---,0.00,VWS V14.01,2013-02-01 01:16:00,
2013-01-31 20:31:00,12.2,10.1,30.02,West,280,11.0,18.0,91,0.00,,---,0.00,VWS V14.01,2013-02-01 01:31:00,
2013-01-31 20:46:00,11.7,9.3,30.02,WSW,258,8.0,19.0,90,0.00,,---,0.00,VWS V14.01,2013-02-01 01:46:00,
2013-01-31 21:01:00,11.3,9.2,30.03,West,269,8.0,18.0,91,0.00,,---,0.00,VWS V14.01,2013-02-01 02:01:00,
2013-01-31 21:16:00,11.2,8.9,30.03,WSW,240,9.0,16.0,90,0.00,,---,0.00,VWS V14.01,2013-02-01 02:16:00,
2013-01-31 21:31:00,11.3,9.2,30.04,West,273,6.0,15.0,91,0.00,,---,0.00,VWS V14.01,2013-02-01 02:31:00,
2013-01-31 21:46:00,11.3,9.2,30.05,WNW,290,12.0,15.0,91,0.00,,---,0.00,VWS V14.01,2013-02-01 02:46:00,
2013-01-31 22:01:00,11.1,8.8,30.05,WSW,246,7.0,17.0,90,0.00,,---,0.00,VWS V14.01,2013-02-01 03:01:00,
2013-01-31 22:16:00,11.1,9.0,30.06,West,265,9.0,15.0,91,0.00,,---,0.00,VWS V14.01,2013-02-01 03:16:00,
2013-01-31 22:31:00,11.1,9.0,30.07,WSW,257,9.0,17.0,91,0.00,,---,0.00,VWS V14.01,2013-02-01 03:31:00,
2013-01-31 22:46:00,10.9,8.8,30.07,West,273,8.0,18.0,91,0.00,,---,0.00,VWS V14.01,2013-02-01 03:46:00,
2013-01-31 23:01:00,10.9,8.8,30.08,West,273,8.0,16.0,91,0.00,,---,0.00,VWS V14.01,2013-02-01 04:01:00,
2013-01-31 23:16:00,10.8,8.7,30.08,WSW,257,12.0,17.0,91,0.00,,---,0.00,VWS V14.01,2013-02-01 04:16:00,
2013-01-31 23:31:00,10.7,8.6,30.09,WNW,296,7.0,19.0,91,0.00,,---,0.00,VWS V14.01,2013-02-01 04:31:00,
2013-01-31 23:46:00,10.6,8.5,30.09,West,266,19.0,19.0,91,0.00,,---,0.00,VWS V14.01,2013-02-01 04:46:00,